createdAt,value
2023-05-13T00:01:22.273Z,9.60
2023-05-13T00:03:49.228Z,8.00
2023-05-13T00:06:16.261Z,12.23
2023-05-13T00:08:43.156Z,9.90
2023-05-13T00:11:10.113Z,13.95
2023-05-13T00:13:37.083Z,11.32
2023-05-13T00:16:04.134Z,11.60
2023-05-13T00:18:31.151Z,9.63
2023-05-13T00:20:58.161Z,9.35
2023-05-13T00:23:25.008Z,10.07
2023-05-13T00:25:51.878Z,9.67
2023-05-13T00:28:18.829Z,10.50
2023-05-13T00:30:46.422Z,13.40
2023-05-13T00:33:13.268Z,9.40
2023-05-13T00:35:40.173Z,12.30
2023-05-13T00:38:07.426Z,11.98
2023-05-13T00:40:37.889Z,10.30
2023-05-13T00:43:04.758Z,11.27
2023-05-13T00:45:31.897Z,8.30
2023-05-13T00:47:59.583Z,9.20
2023-05-13T00:50:26.604Z,11.10
2023-05-13T00:52:54.188Z,9.50
2023-05-13T00:55:21.843Z,11.00
2023-05-13T00:57:48.718Z,11.85
2023-05-13T01:00:16.086Z,10.00
2023-05-13T01:03:03.130Z,10.13
2023-05-13T01:05:46.429Z,8.80
2023-05-13T01:08:31.734Z,8.30
2023-05-13T01:11:04.044Z,9.77
2023-05-13T01:13:34.990Z,11.00
2023-05-13T01:16:13.610Z,11.63
2023-05-13T01:18:52.780Z,9.02
2023-05-13T01:21:29.397Z,12.67
2023-05-13T01:23:56.324Z,8.50
2023-05-13T01:26:23.947Z,12.50
2023-05-13T01:28:50.870Z,9.10
2023-05-13T01:31:19.357Z,8.50
2023-05-13T01:33:47.042Z,9.45
2023-05-13T01:36:14.252Z,9.05
2023-05-13T01:38:42.100Z,12.25
2023-05-13T01:41:09.021Z,9.85
2023-05-13T01:43:35.979Z,9.70
2023-05-13T01:46:02.872Z,10.10
2023-05-13T01:48:29.807Z,10.68
2023-05-13T01:50:56.683Z,9.93
2023-05-13T01:53:23.568Z,11.45
2023-05-13T01:55:50.904Z,8.13
2023-05-13T01:58:17.784Z,10.98
2023-05-13T02:00:44.644Z,11.27
2023-05-13T02:03:11.748Z,12.65
2023-05-13T02:05:38.772Z,12.73
2023-05-13T02:08:06.494Z,9.13
2023-05-13T02:10:33.464Z,11.90
2023-05-13T02:13:00.387Z,10.63
2023-05-13T02:15:27.272Z,11.20
2023-05-13T02:17:54.197Z,12.98
2023-05-13T02:20:21.467Z,12.32
2023-05-13T02:22:48.492Z,10.93
2023-05-13T02:25:15.352Z,12.02
2023-05-13T02:27:42.183Z,10.32
2023-05-13T02:30:09.567Z,8.50
2023-05-13T02:32:36.419Z,21.23
2023-05-13T02:35:03.466Z,18.38
2023-05-13T02:37:30.334Z,8.65
2023-05-13T02:39:57.306Z,11.95
2023-05-13T02:42:24.147Z,10.38
2023-05-13T02:44:51.106Z,10.02
2023-05-13T02:47:17.960Z,8.68
2023-05-13T02:49:44.854Z,14.60
2023-05-13T02:52:11.724Z,21.60
2023-05-13T02:54:38.646Z,14.10
2023-05-13T02:57:05.715Z,12.85
2023-05-13T02:59:32.599Z,11.38
2023-05-13T03:01:59.479Z,9.77
2023-05-13T03:04:26.386Z,13.73
2023-05-13T03:06:53.312Z,13.80
2023-05-13T03:09:20.170Z,18.27
2023-05-13T03:11:47.072Z,11.90
2023-05-13T03:14:13.975Z,11.00
2023-05-13T03:16:40.983Z,11.65
2023-05-13T03:19:08.107Z,11.50
2023-05-13T03:21:35.048Z,21.95
2023-05-13T03:24:01.944Z,15.80
2023-05-13T03:26:28.899Z,16.40
2023-05-13T03:28:55.748Z,12.65
2023-05-13T03:31:22.739Z,10.48
2023-05-13T03:33:49.706Z,9.20
2023-05-13T03:36:16.570Z,12.90
2023-05-13T03:38:43.493Z,13.55
2023-05-13T03:41:10.464Z,14.40
2023-05-13T03:43:37.303Z,11.07
2023-05-13T03:46:04.220Z,12.43
2023-05-13T03:48:31.128Z,11.32
2023-05-13T03:50:58.050Z,11.65
2023-05-13T03:53:24.949Z,10.57
2023-05-13T03:55:51.836Z,10.90
2023-05-13T03:58:18.874Z,15.50
2023-05-13T04:00:45.723Z,13.90
2023-05-13T04:03:12.966Z,14.13
2023-05-13T04:05:40.002Z,24.10
2023-05-13T04:08:06.875Z,24.58
2023-05-13T04:10:33.892Z,14.10
2023-05-13T04:13:00.829Z,14.48
2023-05-13T04:15:27.634Z,14.52
2023-05-13T04:17:54.504Z,17.08
2023-05-13T04:20:21.495Z,14.70
2023-05-13T04:22:48.799Z,17.13
2023-05-13T04:25:16.135Z,22.65
2023-05-13T04:27:43.249Z,14.35
2023-05-13T04:30:10.795Z,25.48
2023-05-13T04:32:37.697Z,28.43
2023-05-13T04:35:05.113Z,23.70
2023-05-13T04:37:31.941Z,14.85
2023-05-13T04:39:58.908Z,13.77
2023-05-13T04:42:25.793Z,15.18
2023-05-13T04:44:52.733Z,12.30
2023-05-13T04:47:19.579Z,12.23
2023-05-13T04:49:46.499Z,12.07
2023-05-13T04:52:13.871Z,13.73
2023-05-13T04:54:40.915Z,14.10
2023-05-13T04:57:07.801Z,16.20
2023-05-13T04:59:34.937Z,11.70
2023-05-13T05:02:01.998Z,20.25
2023-05-13T05:04:28.967Z,22.75
2023-05-13T05:06:55.837Z,12.43
2023-05-13T05:09:22.745Z,12.43
2023-05-13T05:11:49.689Z,10.87
2023-05-13T05:14:16.976Z,11.55
2023-05-13T05:16:43.885Z,11.00
2023-05-13T05:19:10.719Z,14.95
2023-05-13T05:21:37.824Z,29.63
2023-05-13T05:24:05.918Z,25.15
2023-05-13T05:26:32.860Z,19.98
2023-05-13T05:28:59.728Z,13.75
2023-05-13T05:31:26.721Z,12.63
2023-05-13T05:33:53.704Z,11.57
2023-05-13T05:36:20.898Z,13.70
2023-05-13T05:38:47.770Z,13.52
2023-05-13T05:41:14.643Z,12.70
2023-05-13T05:43:41.482Z,14.73
2023-05-13T05:46:08.374Z,13.63
2023-05-13T05:48:35.263Z,9.35
2023-05-13T05:51:02.230Z,14.45
2023-05-13T05:53:29.103Z,9.07
2023-05-13T05:55:55.919Z,9.20
2023-05-13T05:58:23.056Z,9.77
2023-05-13T06:00:50.006Z,10.23
2023-05-13T06:03:17.096Z,11.30
2023-05-13T06:05:44.307Z,12.30
2023-05-13T06:08:11.133Z,11.15
2023-05-13T06:10:37.998Z,14.48
2023-05-13T06:13:04.994Z,10.52
2023-05-13T06:15:31.907Z,11.20
2023-05-13T06:17:58.820Z,14.57
2023-05-13T06:20:25.748Z,12.48
2023-05-13T06:22:52.651Z,12.57
2023-05-13T06:25:19.593Z,13.10
2023-05-13T06:27:46.436Z,9.63
2023-05-13T06:30:13.454Z,14.27
2023-05-13T06:32:47.289Z,13.77
2023-05-13T06:35:20.988Z,13.18
2023-05-13T06:37:47.867Z,9.35
2023-05-13T06:40:14.786Z,12.07
2023-05-13T06:42:41.779Z,13.00
2023-05-13T06:45:09.322Z,10.95
2023-05-13T06:47:36.250Z,12.40
2023-05-13T06:50:04.007Z,11.10
2023-05-13T06:52:30.823Z,15.55
2023-05-13T06:54:58.165Z,16.25
2023-05-13T06:57:32.262Z,11.98
2023-05-13T07:00:06.539Z,12.20
2023-05-13T07:02:33.497Z,12.07
2023-05-13T07:05:00.386Z,15.13
2023-05-13T07:07:27.261Z,14.43
2023-05-13T07:09:54.159Z,14.87
2023-05-13T07:12:21.153Z,12.15
2023-05-13T07:14:47.985Z,11.15
2023-05-13T07:17:14.891Z,12.55
2023-05-13T07:19:41.764Z,12.15
2023-05-13T07:22:08.698Z,11.73
2023-05-13T07:24:35.546Z,9.25
2023-05-13T07:27:02.404Z,13.32
2023-05-13T07:29:31.128Z,13.05
2023-05-13T07:31:58.060Z,15.53
2023-05-13T07:34:24.978Z,14.13
2023-05-13T07:36:51.826Z,15.20
2023-05-13T07:39:18.654Z,16.35
2023-05-13T07:41:45.534Z,10.32
2023-05-13T07:44:12.388Z,17.30
2023-05-13T07:46:39.302Z,12.73
2023-05-13T07:49:06.200Z,11.93
2023-05-13T07:51:33.068Z,17.95
2023-05-13T07:53:59.905Z,9.80
2023-05-13T07:56:26.858Z,16.23
2023-05-13T07:58:53.704Z,11.32
2023-05-13T08:01:20.587Z,13.48
2023-05-13T08:03:47.652Z,10.48
2023-05-13T08:06:14.710Z,16.27
2023-05-13T08:08:41.631Z,11.85
2023-05-13T08:11:08.507Z,12.93
2023-05-13T08:13:35.360Z,12.95
2023-05-13T08:16:02.644Z,13.73
2023-05-13T08:18:30.030Z,11.60
2023-05-13T08:20:56.911Z,10.50
2023-05-13T08:23:33.240Z,11.07
2023-05-13T08:26:07.632Z,10.40
2023-05-13T08:28:34.532Z,10.68
2023-05-13T08:31:01.362Z,11.85
2023-05-13T08:33:31.547Z,12.15
2023-05-13T08:36:00.279Z,13.45
2023-05-13T08:38:27.213Z,13.05
2023-05-13T08:40:54.114Z,9.13
2023-05-13T08:43:23.780Z,11.50
2023-05-13T08:45:52.594Z,8.55
2023-05-13T08:48:20.606Z,11.60
2023-05-13T08:50:47.901Z,12.68
2023-05-13T08:53:16.882Z,13.45
2023-05-13T08:55:43.779Z,9.93
2023-05-13T08:58:10.726Z,12.50
2023-05-13T09:00:37.926Z,9.45
2023-05-13T09:03:05.016Z,9.80
2023-05-13T09:05:32.657Z,12.77
2023-05-13T09:08:02.463Z,10.27
2023-05-13T09:10:29.386Z,9.13
2023-05-13T09:12:56.285Z,10.93
2023-05-13T09:15:25.692Z,13.00
2023-05-13T09:18:01.510Z,9.48
2023-05-13T09:20:28.793Z,8.95
2023-05-13T09:23:00.517Z,8.60
2023-05-13T09:25:28.327Z,7.38
2023-05-13T09:27:59.814Z,9.10
2023-05-13T09:30:29.266Z,9.63
2023-05-13T09:33:17.173Z,7.72
2023-05-13T09:35:51.042Z,8.73
2023-05-13T09:38:30.646Z,7.40
2023-05-13T09:40:59.370Z,9.27
2023-05-13T09:43:32.252Z,7.15
2023-05-13T09:46:03.954Z,7.50
2023-05-13T09:48:33.292Z,8.82
2023-05-13T09:51:00.473Z,10.03
2023-05-13T09:53:28.509Z,10.57
2023-05-13T09:55:57.010Z,9.55
2023-05-13T09:58:26.003Z,8.10
2023-05-13T10:00:52.985Z,8.13
2023-05-13T10:03:19.964Z,8.80
2023-05-13T10:05:48.486Z,10.67
2023-05-13T10:08:15.541Z,10.23
2023-05-13T10:10:43.151Z,11.18
2023-05-13T10:13:10.706Z,8.90
2023-05-13T10:15:48.612Z,11.82
2023-05-13T10:18:19.924Z,8.00
2023-05-13T10:20:48.097Z,7.60
2023-05-13T10:23:15.706Z,8.25
2023-05-13T10:25:44.268Z,10.38
2023-05-13T10:28:11.435Z,11.30
2023-05-13T10:30:39.068Z,9.38
2023-05-13T10:33:06.163Z,9.57
2023-05-13T10:35:38.580Z,6.50
2023-05-13T10:38:21.554Z,8.40
2023-05-13T10:41:25.743Z,8.93
2023-05-13T10:43:59.395Z,9.02
2023-05-13T10:46:26.417Z,7.50
2023-05-13T10:48:59.162Z,10.90
2023-05-13T10:51:26.817Z,8.25
2023-05-13T10:53:55.661Z,7.00
2023-05-13T10:56:23.997Z,10.25
2023-05-13T10:59:04.731Z,11.02
2023-05-13T11:01:39.413Z,10.20
2023-05-13T11:04:06.699Z,11.57
2023-05-13T11:06:38.780Z,11.10
2023-05-13T11:09:13.349Z,13.57
2023-05-13T11:11:41.043Z,9.48
2023-05-13T11:14:20.890Z,7.63
2023-05-13T11:16:54.650Z,8.60
2023-05-13T11:19:26.587Z,6.93
2023-05-13T11:21:55.934Z,8.07
2023-05-13T11:24:24.253Z,7.38
2023-05-13T11:26:57.226Z,7.18
2023-05-13T11:29:35.152Z,8.23
2023-05-13T11:32:06.483Z,9.83
2023-05-13T11:34:34.358Z,7.85
2023-05-13T11:37:03.943Z,8.77
2023-05-13T11:39:31.966Z,9.18
2023-05-13T11:41:59.003Z,7.75
2023-05-13T11:44:26.163Z,7.75
2023-05-13T11:46:57.524Z,8.90
2023-05-13T11:49:40.981Z,11.73
2023-05-13T11:52:14.503Z,9.60
2023-05-13T11:54:45.877Z,8.55
2023-05-13T11:57:19.252Z,10.48
2023-05-13T11:59:55.800Z,8.18
2023-05-13T12:02:34.131Z,9.77
2023-05-13T12:05:05.965Z,9.15
2023-05-13T12:07:33.970Z,7.70
2023-05-13T12:10:03.278Z,9.60
2023-05-13T12:12:32.776Z,9.00
2023-05-13T12:15:01.987Z,6.70
2023-05-13T12:17:30.672Z,11.60
2023-05-13T12:20:13.351Z,6.90
2023-05-13T12:22:43.050Z,12.13
2023-05-13T12:25:31.475Z,11.02
2023-05-13T12:27:59.361Z,8.07
2023-05-13T12:30:26.408Z,6.47
2023-05-13T12:32:58.977Z,8.13
2023-05-13T12:35:25.916Z,6.47
2023-05-13T12:38:20.249Z,9.90
2023-05-13T12:40:48.233Z,6.70
2023-05-13T12:43:17.772Z,8.55
2023-05-13T12:45:47.467Z,10.40
2023-05-13T12:48:14.317Z,8.02
2023-05-13T12:50:41.198Z,8.80
2023-05-13T12:53:08.091Z,7.35
2023-05-13T12:55:34.967Z,7.00
2023-05-13T12:58:03.993Z,7.55
2023-05-13T13:00:31.269Z,10.38
2023-05-13T13:02:58.285Z,8.75
2023-05-13T13:05:27.274Z,11.27
2023-05-13T13:07:54.140Z,9.55
2023-05-13T13:10:21.085Z,9.40
2023-05-13T13:12:48.052Z,9.63
2023-05-13T13:15:14.886Z,6.97
2023-05-13T13:17:41.793Z,8.30
2023-05-13T13:20:08.899Z,10.82
2023-05-13T13:22:36.001Z,7.40
2023-05-13T13:25:04.984Z,9.90
2023-05-13T13:27:33.462Z,10.63
2023-05-13T13:30:00.594Z,7.30
2023-05-13T13:32:27.499Z,6.30
2023-05-13T13:34:54.451Z,8.20
2023-05-13T13:37:21.336Z,11.38
2023-05-13T13:39:48.200Z,6.67
2023-05-13T13:42:15.096Z,8.90
2023-05-13T13:44:41.968Z,8.02
2023-05-13T13:47:09.793Z,6.57
2023-05-13T13:49:36.820Z,9.18
2023-05-13T13:52:04.084Z,11.43
2023-05-13T13:54:30.965Z,9.40
2023-05-13T13:56:57.970Z,9.70
2023-05-13T13:59:24.857Z,6.00
2023-05-13T14:01:51.777Z,7.78
2023-05-13T14:04:20.506Z,12.60
2023-05-13T14:06:47.450Z,8.80
2023-05-13T14:09:15.525Z,10.77
2023-05-13T14:11:42.380Z,10.82
2023-05-13T14:14:09.340Z,15.20
2023-05-13T14:16:36.790Z,6.80
2023-05-13T14:19:03.780Z,7.60
2023-05-13T14:21:30.660Z,7.00
2023-05-13T14:23:57.509Z,8.23
2023-05-13T14:26:24.437Z,7.90
2023-05-13T14:28:51.337Z,10.82
2023-05-13T14:31:18.291Z,8.00
2023-05-13T14:33:45.271Z,7.68
2023-05-13T14:36:12.259Z,6.45
2023-05-13T14:38:39.142Z,8.18
2023-05-13T14:41:06.060Z,9.32
2023-05-13T14:43:32.913Z,9.70
2023-05-13T14:45:59.815Z,9.40
2023-05-13T14:48:26.729Z,11.30
2023-05-13T14:50:53.590Z,8.30
2023-05-13T14:53:20.636Z,9.30
2023-05-13T14:55:49.389Z,7.40
2023-05-13T14:58:17.517Z,9.13
2023-05-13T15:00:44.495Z,8.50
2023-05-13T15:03:12.237Z,7.80
2023-05-13T15:05:40.093Z,9.02
2023-05-13T15:08:09.144Z,8.93
2023-05-13T15:10:36.062Z,7.60
2023-05-13T15:13:02.964Z,7.93
2023-05-13T15:15:30.840Z,9.07
2023-05-13T15:17:57.750Z,9.00
2023-05-13T15:20:24.825Z,8.75
2023-05-13T15:22:51.719Z,7.25
2023-05-13T15:25:18.652Z,6.97
2023-05-13T15:27:45.497Z,7.88
2023-05-13T15:30:12.600Z,7.07
2023-05-13T15:32:39.542Z,6.63
2023-05-13T15:35:06.972Z,7.75
2023-05-13T15:37:37.369Z,8.73
2023-05-13T15:40:04.551Z,6.20
2023-05-13T15:42:31.482Z,9.00
2023-05-13T15:44:58.317Z,7.60
2023-05-13T15:47:25.326Z,5.70
2023-05-13T15:49:52.306Z,8.48
2023-05-13T15:52:19.220Z,9.50
2023-05-13T15:54:46.075Z,8.60
2023-05-13T15:57:12.924Z,8.63
2023-05-13T15:59:39.769Z,10.50
2023-05-13T16:02:07.049Z,9.23
2023-05-13T16:04:34.066Z,7.45
2023-05-13T16:07:00.926Z,7.53
2023-05-13T16:09:27.792Z,7.40
2023-05-13T16:11:55.349Z,6.80
2023-05-13T16:14:22.249Z,7.35
2023-05-13T16:16:49.216Z,6.35
2023-05-13T16:19:16.135Z,9.10
2023-05-13T16:21:43.075Z,9.80
2023-05-13T16:24:09.971Z,8.05
2023-05-13T16:26:37.056Z,8.70
2023-05-13T16:29:04.013Z,9.00
2023-05-13T16:31:31.020Z,8.52
2023-05-13T16:33:58.101Z,11.57
2023-05-13T16:36:24.951Z,8.35
2023-05-13T16:38:51.853Z,8.38
2023-05-13T16:41:18.744Z,8.93
2023-05-13T16:43:45.592Z,10.82
2023-05-13T16:46:12.708Z,10.10
2023-05-13T16:48:39.800Z,7.50
2023-05-13T16:51:06.986Z,7.30
2023-05-13T16:53:33.922Z,8.50
2023-05-13T16:56:00.964Z,11.38
2023-05-13T16:58:27.868Z,12.55
2023-05-13T17:00:55.614Z,11.43
2023-05-13T17:03:24.180Z,7.30
2023-05-13T17:05:51.148Z,8.18
2023-05-13T17:08:18.725Z,6.40
2023-05-13T17:10:45.660Z,10.60
2023-05-13T17:13:12.540Z,8.20
2023-05-13T17:15:39.427Z,9.13
2023-05-13T17:18:06.352Z,7.65
2023-05-13T17:20:33.294Z,7.00
2023-05-13T17:23:00.118Z,10.63
2023-05-13T17:25:27.036Z,10.63
2023-05-13T17:27:53.907Z,7.57
2023-05-13T17:30:21.002Z,9.00
2023-05-13T17:32:48.165Z,10.32
2023-05-13T17:35:15.109Z,9.60
2023-05-13T17:37:41.958Z,9.80
2023-05-13T17:40:09.554Z,9.23
2023-05-13T17:42:36.482Z,14.23
2023-05-13T17:45:03.821Z,13.63
2023-05-13T17:47:30.726Z,10.75
2023-05-13T17:49:57.654Z,11.00
2023-05-13T17:52:24.528Z,9.48
2023-05-13T17:54:51.397Z,12.10
2023-05-13T17:57:18.329Z,7.50
2023-05-13T17:59:45.203Z,12.10
2023-05-13T18:02:12.092Z,10.07
2023-05-13T18:04:39.006Z,11.27
2023-05-13T18:07:05.832Z,9.30
2023-05-13T18:09:32.673Z,7.70
2023-05-13T18:11:59.519Z,8.73
2023-05-13T18:14:26.387Z,12.88
2023-05-13T18:16:53.232Z,13.73
2023-05-13T18:19:20.114Z,11.18
2023-05-13T18:21:46.983Z,10.50
2023-05-13T18:24:13.881Z,11.20
2023-05-13T18:26:40.756Z,10.70
2023-05-13T18:29:07.672Z,10.15
2023-05-13T18:31:34.614Z,10.43
2023-05-13T18:34:02.957Z,11.60
2023-05-13T18:36:29.776Z,8.55
2023-05-13T18:38:56.649Z,10.38
2023-05-13T18:41:23.528Z,15.55
2023-05-13T18:43:50.410Z,12.40
2023-05-13T18:46:17.416Z,10.13
2023-05-13T18:48:44.389Z,8.30
2023-05-13T18:51:11.230Z,10.07
2023-05-13T18:53:38.131Z,15.93
2023-05-13T18:56:05.265Z,9.85
2023-05-13T18:58:32.123Z,12.57
2023-05-13T19:00:58.966Z,9.88
2023-05-13T19:03:25.970Z,14.57
2023-05-13T19:05:53.095Z,11.40
2023-05-13T19:08:20.039Z,10.00
2023-05-13T19:10:46.907Z,9.60
2023-05-13T19:13:13.845Z,13.57
2023-05-13T19:15:40.922Z,11.77
2023-05-13T19:18:07.796Z,9.13
2023-05-13T19:20:34.681Z,13.30
2023-05-13T19:23:01.671Z,10.95
2023-05-13T19:25:28.601Z,10.47
2023-05-13T19:27:55.827Z,11.15
2023-05-13T19:30:23.228Z,18.98
2023-05-13T19:32:50.322Z,10.50
2023-05-13T19:35:17.267Z,9.45
2023-05-13T19:37:44.185Z,9.67
2023-05-13T19:40:11.288Z,8.38
2023-05-13T19:42:38.179Z,11.55
2023-05-13T19:45:05.375Z,13.00
2023-05-13T19:47:34.490Z,10.30
2023-05-13T19:50:01.473Z,9.70
2023-05-13T19:52:28.483Z,8.50
2023-05-13T19:54:55.356Z,13.65
2023-05-13T19:57:22.241Z,10.48
2023-05-13T19:59:49.128Z,10.83
2023-05-13T20:02:16.079Z,11.18
2023-05-13T20:04:42.987Z,8.93
2023-05-13T20:07:09.840Z,10.75
2023-05-13T20:09:36.744Z,12.43
2023-05-13T20:12:03.879Z,8.70
2023-05-13T20:14:49.268Z,9.98
2023-05-13T20:17:20.513Z,11.35
2023-05-13T20:19:52.333Z,11.48
2023-05-13T20:22:19.635Z,8.00
2023-05-13T20:24:46.780Z,9.55
2023-05-13T20:27:14.064Z,9.60
2023-05-13T20:29:44.482Z,10.50
2023-05-13T20:32:11.979Z,9.73
2023-05-13T20:34:38.962Z,13.30
2023-05-13T20:37:06.235Z,9.00
2023-05-13T20:39:33.423Z,9.43
2023-05-13T20:42:00.271Z,10.83
2023-05-13T20:44:27.156Z,10.65
2023-05-13T20:46:54.070Z,8.77
2023-05-13T20:49:20.996Z,9.10
2023-05-13T20:51:48.286Z,12.50
2023-05-13T20:54:15.911Z,8.73
2023-05-13T20:56:43.174Z,12.30
2023-05-13T20:59:10.260Z,11.27
2023-05-13T21:01:37.196Z,10.30
2023-05-13T21:04:04.778Z,11.30
2023-05-13T21:06:31.977Z,9.07
2023-05-13T21:08:59.254Z,8.77
2023-05-13T21:11:26.193Z,12.93
2023-05-13T21:13:53.130Z,10.35
2023-05-13T21:16:20.113Z,11.82
2023-05-13T21:18:47.165Z,10.70
2023-05-13T21:21:14.080Z,10.30
2023-05-13T21:23:41.894Z,9.18
2023-05-13T21:26:12.274Z,9.93
2023-05-13T21:28:39.631Z,8.98
2023-05-13T21:31:06.710Z,10.73
2023-05-13T21:33:34.030Z,14.40
2023-05-13T21:36:00.891Z,13.17
2023-05-13T21:38:27.831Z,24.20
2023-05-13T21:40:54.663Z,11.60
2023-05-13T21:43:21.539Z,6.88
2023-05-13T21:45:49.036Z,11.73
2023-05-13T21:48:15.988Z,9.57
2023-05-13T21:50:42.935Z,9.98
2023-05-13T21:53:10.112Z,11.48
2023-05-13T21:55:37.020Z,14.93
2023-05-13T21:58:03.871Z,18.98
2023-05-13T22:00:30.771Z,14.80
2023-05-13T22:02:57.801Z,16.13
2023-05-13T22:05:24.829Z,12.77
2023-05-13T22:07:51.667Z,17.97
2023-05-13T22:10:18.636Z,16.17
2023-05-13T22:12:45.522Z,16.60
2023-05-13T22:15:12.418Z,17.02
2023-05-13T22:17:39.639Z,19.45
2023-05-13T22:20:07.342Z,20.88
2023-05-13T22:22:34.209Z,18.42
2023-05-13T22:25:01.073Z,16.38
2023-05-13T22:27:27.934Z,20.97
2023-05-13T22:29:54.805Z,18.08
2023-05-13T22:32:21.663Z,18.58
2023-05-13T22:34:48.483Z,18.77
2023-05-13T22:37:15.321Z,21.75
2023-05-13T22:39:42.203Z,18.05
2023-05-13T22:42:09.210Z,17.05
2023-05-13T22:44:36.089Z,16.42
2023-05-13T22:47:03.008Z,13.98
2023-05-13T22:49:29.940Z,13.38
2023-05-13T22:51:56.799Z,11.77
2023-05-13T22:54:23.637Z,12.15
2023-05-13T22:56:50.541Z,11.18
2023-05-13T22:59:17.397Z,15.00
2023-05-13T23:01:44.282Z,14.50
2023-05-13T23:04:11.233Z,10.73
2023-05-13T23:06:38.132Z,11.90
2023-05-13T23:09:05.022Z,11.00
2023-05-13T23:11:31.915Z,9.85
2023-05-13T23:13:58.816Z,14.38
2023-05-13T23:16:25.739Z,13.73
2023-05-13T23:18:52.674Z,9.63
2023-05-13T23:21:19.505Z,14.25
2023-05-13T23:23:46.395Z,11.07
2023-05-13T23:26:13.362Z,10.67
2023-05-13T23:28:40.245Z,13.35
2023-05-13T23:31:07.145Z,10.80
2023-05-13T23:33:34.025Z,12.73
2023-05-13T23:36:00.872Z,10.02
2023-05-13T23:38:27.789Z,10.73
2023-05-13T23:40:54.630Z,13.63
2023-05-13T23:43:21.549Z,11.35
2023-05-13T23:45:48.418Z,11.90
2023-05-13T23:48:15.339Z,12.65
2023-05-13T23:50:42.271Z,9.82
2023-05-13T23:53:09.192Z,10.30
2023-05-13T23:55:36.075Z,11.60
2023-05-13T23:58:02.961Z,10.10
